Time;durP1;ratioP1;P1;durP2;ratioP2;P2;SDS_P1;SDS_P2;PMS_P1;PMS_P2;Temp;Humidity;BMP_temperature;BMP_pressure;BME280_temperature;BME280_humidity;BME280_pressure;Samples;Min_cycle;Max_cycle;Signal;HPM_P1;HPM_P2
2022/08/27 06:33:35;;;;;;;;;4.00;3.00;;;;;;;;6305798;22;46398;-88
2022/08/27 06:36:04;;;;;;;;;5.00;5.00;;;;;;;;6366647;22;45499;-86
2022/08/27 06:38:29;;;;;;;;;3.33;3.33;;;;;;;;6335928;22;45632;-90
2022/08/27 06:40:55;;;;;;;;;4.00;2.67;;;;;;;;6336247;22;45610;-88
2022/08/27 06:43:21;;;;;;;;;4.00;3.00;;;;;;;;6366164;22;45352;-89
2022/08/27 06:45:46;;;;;;;;;3.33;3.33;;;;;;;;6367656;22;45349;-89
2022/08/27 06:48:11;;;;;;;;;3.67;3.33;;;;;;;;6367735;22;45343;-89
2022/08/27 06:50:37;;;;;;;;;5.67;3.33;;;;;;;;6367491;22;45549;-89
2022/08/27 06:53:03;;;;;;;;;4.67;4.67;;;;;;;;6365787;22;46012;-89
2022/08/27 06:55:28;;;;;;;;;4.33;3.00;;;;;;;;6367211;22;45332;-90
2022/08/27 06:57:53;;;;;;;;;5.67;4.00;;;;;;;;6339051;22;45211;-91
2022/08/27 07:00:18;;;;;;;;;2.33;2.33;;;;;;;;6338753;22;45528;-89
2022/08/27 07:02:44;;;;;;;;;4.33;4.33;;;;;;;;6367076;22;46510;-90
2022/08/27 07:05:11;;;;;;;;;4.25;4.25;;;;;;;;6340673;22;45327;-89
2022/08/27 07:07:36;;;;;;;;;5.00;5.00;;;;;;;;6339959;22;45446;-92
2022/08/27 07:10:01;;;;;;;;;3.67;3.67;;;;;;;;6367518;22;45272;-90
2022/08/27 07:12:26;;;;;;;;;4.00;4.00;;;;;;;;6367739;22;46245;-95
2022/08/27 07:14:52;;;;;;;;;4.67;4.67;;;;;;;;6339652;22;45672;-94
2022/08/27 07:17:17;;;;;;;;;3.00;3.00;;;;;;;;6340703;22;45280;-93
2022/08/27 07:19:42;;;;;;;;;5.00;3.33;;;;;;;;6339618;22;45597;-92
2022/08/27 07:22:07;;;;;;;;;4.00;3.00;;;;;;;;6339080;22;47034;-92
2022/08/27 07:24:33;;;;;;;;;4.33;4.00;;;;;;;;6343658;22;45367;-92
2022/08/27 07:26:58;;;;;;;;;6.00;5.00;;;;;;;;6368124;22;45406;-94
2022/08/27 07:29:24;;;;;;;;;4.00;4.00;;;;;;;;6340597;22;45405;-94
2022/08/27 07:31:49;;;;;;;;;4.67;4.67;;;;;;;;6338922;22;47699;-91
2022/08/27 07:34:15;;;;;;;;;2.33;2.33;;;;;;;;6339400;22;45546;-91
2022/08/27 07:36:40;;;;;;;;;5.00;4.00;;;;;;;;6339452;22;45388;-90
2022/08/27 07:39:09;;;;;;;;;4.33;4.00;;;;;;;;6372269;22;45206;-94
2022/08/27 07:44:29;;;;;;;;;3.00;3.00;;;;;;;;6369643;22;45398;-96
2022/08/27 07:46:54;;;;;;;;;4.00;4.00;;;;;;;;6340714;22;45138;-94
2022/08/27 07:49:21;;;;;;;;;4.33;4.33;;;;;;;;6347538;22;45378;-96
2022/08/27 07:51:47;;;;;;;;;4.00;4.00;;;;;;;;6368756;22;45671;-96
2022/08/27 07:54:13;;;;;;;;;5.00;5.00;;;;;;;;6340497;22;45468;-94
2022/08/27 07:56:38;;;;;;;;;6.33;4.00;;;;;;;;6340174;22;45284;-95
2022/08/27 07:59:03;;;;;;;;;5.67;5.67;;;;;;;;6340432;22;45361;-95
2022/08/27 08:01:29;;;;;;;;;5.33;4.00;;;;;;;;6370573;22;45355;-93
2022/08/27 08:03:54;;;;;;;;;5.67;4.33;;;;;;;;6340576;22;45651;-95
2022/08/27 08:06:26;;;;;;;;;6.33;5.00;;;;;;;;6339903;22;45543;-96
2022/08/27 08:08:51;;;;;;;;;6.00;4.00;;;;;;;;6340743;22;45523;-96
2022/08/27 08:11:17;;;;;;;;;8.33;6.00;;;;;;;;6341669;22;48076;-96
2022/08/27 08:13:43;;;;;;;;;7.00;7.00;;;;;;;;6341369;22;45351;-96
2022/08/27 08:16:09;;;;;;;;;4.00;4.00;;;;;;;;6342742;22;45382;-96
2022/08/27 08:18:34;;;;;;;;;3.33;3.33;;;;;;;;6348559;22;45481;-95
2022/08/27 08:21:05;;;;;;;;;7.33;4.00;;;;;;;;6340637;22;46962;-94
2022/08/27 08:23:31;;;;;;;;;5.00;3.00;;;;;;;;6338743;22;45597;-96
2022/08/27 08:25:57;;;;;;;;;4.00;2.00;;;;;;;;6340460;22;45393;-96
2022/08/27 08:28:22;;;;;;;;;4.67;4.00;;;;;;;;6344316;22;45356;-96
2022/08/27 08:30:47;;;;;;;;;3.33;3.33;;;;;;;;6341277;22;47121;-96
2022/08/27 08:33:13;;;;;;;;;5.00;3.33;;;;;;;;6341784;22;45621;-96
2022/08/27 08:35:39;;;;;;;;;3.00;3.00;;;;;;;;6341153;22;45816;-96
2022/08/27 08:38:04;;;;;;;;;4.67;3.00;;;;;;;;6341120;22;45473;-96
2022/08/27 08:40:31;;;;;;;;;2.00;2.00;;;;;;;;6340864;22;47576;-96
2022/08/27 08:42:58;;;;;;;;;2.67;2.67;;;;;;;;6340558;22;45959;-96
2022/08/27 08:45:28;;;;;;;;;3.33;3.33;;;;;;;;6340771;22;45169;-96
2022/08/27 08:48:04;;;;;;;;;3.00;3.00;;;;;;;;6341132;22;45338;-96
2022/08/27 08:50:39;;;;;;;;;3.00;3.00;;;;;;;;6346022;22;47083;-96
2022/08/27 08:53:08;;;;;;;;;5.33;3.67;;;;;;;;6370180;22;45432;-94
2022/08/27 08:55:40;;;;;;;;;3.00;3.00;;;;;;;;6343969;22;45539;-96
2022/08/27 08:58:08;;;;;;;;;3.33;3.33;;;;;;;;6353247;22;45395;-95
2022/08/27 09:00:35;;;;;;;;;3.33;3.00;;;;;;;;6344458;22;47182;-96
2022/08/27 09:03:00;;;;;;;;;3.00;3.00;;;;;;;;6342396;22;45426;-93
2022/08/27 09:05:25;;;;;;;;;3.00;3.00;;;;;;;;6340277;22;45386;-94
2022/08/27 09:07:54;;;;;;;;;5.00;4.00;;;;;;;;6338979;22;45243;-95
2022/08/27 09:10:25;;;;;;;;;3.00;1.33;;;;;;;;6339501;22;48004;-94
2022/08/27 09:12:51;;;;;;;;;3.00;2.33;;;;;;;;6339850;22;46000;-94
2022/08/27 09:15:22;;;;;;;;;3.00;3.00;;;;;;;;6339589;22;45382;-95
2022/08/27 09:17:47;;;;;;;;;3.33;2.33;;;;;;;;6367738;22;45429;-94
2022/08/27 09:20:16;;;;;;;;;2.00;2.00;;;;;;;;6339201;22;47379;-92
2022/08/27 09:22:47;;;;;;;;;3.00;3.00;;;;;;;;6338880;22;45871;-93
2022/08/27 09:25:16;;;;;;;;;3.33;3.33;;;;;;;;6339728;22;45328;-96
2022/08/27 09:27:42;;;;;;;;;3.00;3.00;;;;;;;;6338580;22;45299;-96
2022/08/27 09:30:09;;;;;;;;;2.00;2.00;;;;;;;;6340367;22;47132;-94
2022/08/27 09:32:35;;;;;;;;;5.00;4.00;;;;;;;;6339088;22;45708;-94
2022/08/27 09:35:03;;;;;;;;;5.00;3.00;;;;;;;;6339577;22;45248;-92
2022/08/27 09:37:30;;;;;;;;;3.00;3.00;;;;;;;;6340943;22;45658;-95
2022/08/27 09:40:00;;;;;;;;;3.00;3.00;;;;;;;;6343654;22;48249;-96
2022/08/27 09:42:25;;;;;;;;;4.00;4.00;;;;;;;;6343720;22;45802;-93
2022/08/27 09:44:52;;;;;;;;;2.00;2.00;;;;;;;;6369360;22;45396;-95
2022/08/27 09:47:17;;;;;;;;;4.00;3.33;;;;;;;;6338326;22;45380;-93
2022/08/27 09:49:43;;;;;;;;;4.00;4.00;;;;;;;;6341778;22;48153;-95
2022/08/27 09:52:18;;;;;;;;;2.00;2.00;;;;;;;;6344762;22;45760;-94
2022/08/27 09:54:46;;;;;;;;;3.67;2.67;;;;;;;;6339239;22;45709;-94
2022/08/27 09:57:13;;;;;;;;;3.67;2.33;;;;;;;;6338482;22;45450;-91
2022/08/27 09:59:40;;;;;;;;;2.67;2.67;;;;;;;;6368052;22;45362;-94
2022/08/27 10:02:13;;;;;;;;;3.00;3.00;;;;;;;;6339497;22;45896;-93
2022/08/27 10:04:40;;;;;;;;;2.00;2.00;;;;;;;;6340390;22;45449;-95
2022/08/27 10:07:31;;;;;;;;;4.33;2.00;;;;;;;;6373756;22;45197;-96
2022/08/27 10:10:02;;;;;;;;;1.67;1.67;;;;;;;;6361673;22;45470;-94
2022/08/27 10:12:38;;;;;;;;;3.00;1.00;;;;;;;;6339828;22;45233;-94
2022/08/27 10:15:04;;;;;;;;;3.00;3.00;;;;;;;;6368368;22;45255;-96
2022/08/27 10:17:48;;;;;;;;;4.33;3.00;;;;;;;;6344297;22;45303;-96
2022/08/27 10:20:13;;;;;;;;;3.67;3.00;;;;;;;;6353968;22;47140;-96
2022/08/27 10:22:45;;;;;;;;;3.00;3.00;;;;;;;;6352524;22;45302;-95
2022/08/27 10:25:29;;;;;;;;;5.33;5.00;;;;;;;;6349315;22;45304;-92
2022/08/27 10:28:21;;;;;;;;;4.00;3.00;;;;;;;;6341533;22;45507;-94
2022/08/27 10:30:53;;;;;;;;;3.33;2.67;;;;;;;;6344834;22;47241;-96
2022/08/27 10:33:19;;;;;;;;;4.33;4.33;;;;;;;;6348283;22;45275;-94
2022/08/27 10:35:48;;;;;;;;;2.00;2.00;;;;;;;;6347091;22;45241;-92
2022/08/27 10:40:59;;;;;;;;;3.00;2.00;;;;;;;;6374041;22;46508;-95
2022/08/27 10:43:47;;;;;;;;;2.00;2.00;;;;;;;;6380227;22;45469;-96
2022/08/27 10:46:31;;;;;;;;;16.67;14.33;;;;;;;;6374958;22;45374;-94
2022/08/27 10:49:03;;;;;;;;;2.33;2.00;;;;;;;;6341908;22;45469;-94
2022/08/27 10:51:58;;;;;;;;;2.00;2.00;;;;;;;;6370351;22;45405;-94
2022/08/27 10:54:23;;;;;;;;;3.00;3.00;;;;;;;;6271285;22;45533;-94
2022/08/27 10:57:08;;;;;;;;;4.25;3.00;;;;;;;;6272157;22;45487;-94
2022/08/27 10:59:48;;;;;;;;;2.00;2.00;;;;;;;;6250616;22;45548;-94
2022/08/27 11:02:16;;;;;;;;;2.00;2.00;;;;;;;;6272646;22;48345;-93
2022/08/27 11:04:45;;;;;;;;;2.67;2.67;;;;;;;;6279224;22;45639;-96
2022/08/27 11:07:16;;;;;;;;;3.00;2.00;;;;;;;;6264696;22;44742;-96
2022/08/27 11:09:47;;;;;;;;;4.00;3.00;;;;;;;;6291815;22;44944;-96
2022/08/27 11:12:16;;;;;;;;;4.67;4.67;;;;;;;;6278085;22;46505;-92
2022/08/27 11:14:53;;;;;;;;;3.00;3.00;;;;;;;;6247273;22;45300;-92
2022/08/27 11:17:31;;;;;;;;;2.00;2.00;;;;;;;;6274336;22;45616;-90
2022/08/27 11:20:02;;;;;;;;;3.00;3.00;;;;;;;;6271783;22;45500;-92
2022/08/27 11:22:33;;;;;;;;;3.67;2.00;;;;;;;;6269877;22;45717;-91
2022/08/27 11:24:58;;;;;;;;;5.00;2.67;;;;;;;;6270411;22;45283;-92
2022/08/27 11:27:27;;;;;;;;;3.50;3.50;;;;;;;;6269550;22;45328;-92
2022/08/27 11:30:03;;;;;;;;;2.00;2.00;;;;;;;;6280870;22;45655;-91
2022/08/27 11:32:41;;;;;;;;;2.00;2.00;;;;;;;;6338139;22;47390;-89
2022/08/27 11:35:27;;;;;;;;;5.00;3.33;;;;;;;;6367103;22;45729;-88
2022/08/27 11:38:12;;;;;;;;;3.33;2.00;;;;;;;;6364370;22;45455;-89
2022/08/27 11:40:37;;;;;;;;;2.33;2.33;;;;;;;;6336042;22;45325;-89
2022/08/27 11:43:08;;;;;;;;;3.33;2.00;;;;;;;;6336786;22;47385;-91
2022/08/27 11:45:37;;;;;;;;;1.00;1.00;;;;;;;;6339297;22;46435;-90
2022/08/27 11:48:22;;;;;;;;;2.33;2.33;;;;;;;;6367629;22;45328;-92
2022/08/27 11:50:56;;;;;;;;;3.33;2.67;;;;;;;;6349603;22;45719;-90
2022/08/27 11:53:32;;;;;;;;;2.00;2.00;;;;;;;;6365969;22;45407;-91
2022/08/27 11:56:08;;;;;;;;;1.67;1.67;;;;;;;;6366231;22;45427;-92
2022/08/27 11:58:34;;;;;;;;;1.00;1.00;;;;;;;;6338374;22;45367;-92
2022/08/27 12:01:01;;;;;;;;;0.00;0.00;;;;;;;;6338435;22;45316;-91
2022/08/27 12:03:31;;;;;;;;;1.00;1.00;;;;;;;;6338933;22;46960;-91
2022/08/27 12:05:56;;;;;;;;;0.00;0.00;;;;;;;;6366505;22;45957;-92
2022/08/27 12:08:21;;;;;;;;;1.00;1.00;;;;;;;;6366189;22;45371;-91
2022/08/27 12:11:02;;;;;;;;;2.00;2.00;;;;;;;;6337864;22;45418;-91
2022/08/27 12:13:27;;;;;;;;;1.67;1.67;;;;;;;;6336608;22;47453;-90
2022/08/27 12:15:52;;;;;;;;;1.50;1.50;;;;;;;;6363910;22;45338;-91
2022/08/27 12:18:23;;;;;;;;;2.00;2.00;;;;;;;;6338065;22;45306;-91
2022/08/27 12:20:55;;;;;;;;;1.33;1.33;;;;;;;;6337608;22;45379;-91
2022/08/27 12:23:42;;;;;;;;;3.00;1.00;;;;;;;;6337225;22;47178;-92
2022/08/27 12:26:14;;;;;;;;;2.00;2.00;;;;;;;;6337253;22;45359;-91
2022/08/27 12:28:39;;;;;;;;;4.00;4.00;;;;;;;;6337492;22;45322;-90
2022/08/27 12:31:05;;;;;;;;;2.00;2.00;;;;;;;;6337989;22;45532;-93
2022/08/27 12:33:47;;;;;;;;;1.00;1.00;;;;;;;;6367237;22;46438;-96
2022/08/27 12:36:20;;;;;;;;;3.00;1.00;;;;;;;;6340605;22;45390;-90
2022/08/27 12:38:46;;;;;;;;;1.00;1.00;;;;;;;;6365527;22;45354;-93
2022/08/27 12:41:22;;;;;;;;;2.67;1.00;;;;;;;;6369731;22;45627;-95
2022/08/27 12:43:47;;;;;;;;;5.00;3.00;;;;;;;;6338540;22;47654;-92
2022/08/27 12:46:14;;;;;;;;;1.00;1.00;;;;;;;;6336649;22;45690;-91
2022/08/27 12:48:45;;;;;;;;;2.00;2.00;;;;;;;;6368249;22;45229;-88
2022/08/27 12:51:13;;;;;;;;;1.00;1.00;;;;;;;;6340128;22;45689;-95
2022/08/27 12:53:42;;;;;;;;;1.00;1.00;;;;;;;;6336718;22;48183;-92
2022/08/27 12:56:16;;;;;;;;;1.00;1.00;;;;;;;;6336691;22;45391;-93
2022/08/27 12:58:47;;;;;;;;;1.00;1.00;;;;;;;;6365429;22;45288;-92
2022/08/27 13:01:25;;;;;;;;;1.00;1.00;;;;;;;;6366538;22;45335;-92
2022/08/27 13:03:53;;;;;;;;;1.00;1.00;;;;;;;;6366886;22;46228;-91
2022/08/27 13:06:19;;;;;;;;;1.33;1.00;;;;;;;;6366405;22;45303;-94
2022/08/27 13:08:45;;;;;;;;;2.00;2.00;;;;;;;;6338883;22;45402;-93
2022/08/27 13:11:17;;;;;;;;;3.00;1.67;;;;;;;;6367100;22;45284;-94
2022/08/27 13:13:42;;;;;;;;;0.67;0.33;;;;;;;;6338782;22;48359;-94
2022/08/27 13:16:07;;;;;;;;;0.33;0.33;;;;;;;;6339732;22;45260;-95
2022/08/27 13:18:34;;;;;;;;;0.67;0.67;;;;;;;;6372689;22;45556;-95
2022/08/27 13:21:15;;;;;;;;;1.00;1.00;;;;;;;;6374324;22;45577;-94
2022/08/27 13:24:03;;;;;;;;;1.00;1.00;;;;;;;;6336005;22;48135;-94
2022/08/27 13:26:32;;;;;;;;;1.00;0.00;;;;;;;;6325505;22;45404;-91
2022/08/27 13:28:58;;;;;;;;;0.00;0.00;;;;;;;;6336349;22;45324;-90
2022/08/27 13:31:24;;;;;;;;;0.67;0.67;;;;;;;;6366763;22;45279;-91
2022/08/27 13:33:49;;;;;;;;;1.00;1.00;;;;;;;;6336897;22;47227;-91
2022/08/27 13:36:24;;;;;;;;;1.00;1.00;;;;;;;;6338294;22;45287;-89
2022/08/27 13:38:49;;;;;;;;;2.33;2.33;;;;;;;;6364437;22;45365;-90
2022/08/27 13:41:24;;;;;;;;;1.00;1.00;;;;;;;;6340579;22;45242;-90
2022/08/27 13:43:49;;;;;;;;;3.00;3.00;;;;;;;;6366649;22;46339;-91
2022/08/27 13:46:16;;;;;;;;;16.25;14.75;;;;;;;;6337851;22;45275;-90
2022/08/27 13:48:43;;;;;;;;;1.33;1.33;;;;;;;;6338310;22;45309;-90
2022/08/27 13:51:09;;;;;;;;;12.00;12.00;;;;;;;;6369170;22;45167;-86
2022/08/27 13:56:23;;;;;;;;;1.00;1.00;;;;;;;;6363257;22;45911;-91
2022/08/27 13:58:48;;;;;;;;;41.50;35.75;;;;;;;;6363996;22;45335;-92
2022/08/27 14:01:22;;;;;;;;;20.33;20.33;;;;;;;;6337416;22;45480;-91
2022/08/27 14:03:49;;;;;;;;;6.67;5.67;;;;;;;;6363823;22;47212;-90
2022/08/27 14:06:22;;;;;;;;;7.00;7.00;;;;;;;;6337892;22;45307;-89
2022/08/27 14:08:47;;;;;;;;;4.67;4.67;;;;;;;;6335619;22;45351;-93
2022/08/27 14:11:14;;;;;;;;;6.00;6.00;;;;;;;;6337430;22;45333;-93
2022/08/27 14:13:41;;;;;;;;;5.67;5.67;;;;;;;;6335887;22;48307;-87
2022/08/27 14:16:26;;;;;;;;;0.67;0.67;;;;;;;;6364539;22;45582;-90
2022/08/27 14:19:01;;;;;;;;;4.33;4.33;;;;;;;;6365466;22;45415;-88
2022/08/27 14:21:26;;;;;;;;;0.33;0.33;;;;;;;;6366034;22;45396;-89
2022/08/27 14:23:52;;;;;;;;;0.00;0.00;;;;;;;;6363917;22;46493;-93
2022/08/27 14:26:18;;;;;;;;;3.00;0.00;;;;;;;;6374409;22;45226;-96
2022/08/27 14:28:48;;;;;;;;;0.00;0.00;;;;;;;;6377871;22;45477;-96
2022/08/27 14:31:14;;;;;;;;;0.67;0.67;;;;;;;;6377115;22;45324;-91
2022/08/27 14:33:39;;;;;;;;;1.00;1.00;;;;;;;;6346197;22;48314;-95
2022/08/27 14:36:05;;;;;;;;;0.67;0.67;;;;;;;;6349263;22;45291;-95
2022/08/27 14:38:32;;;;;;;;;1.00;1.00;;;;;;;;6341660;22;45500;-95
2022/08/27 14:40:57;;;;;;;;;1.00;1.00;;;;;;;;6347424;22;45251;-96
2022/08/27 14:43:23;;;;;;;;;1.00;1.00;;;;;;;;6342536;22;46537;-96
2022/08/27 14:45:50;;;;;;;;;2.33;1.00;;;;;;;;6344572;22;45264;-96
2022/08/27 14:48:26;;;;;;;;;0.00;0.00;;;;;;;;6346068;22;45413;-96
2022/08/27 14:50:52;;;;;;;;;0.67;0.67;;;;;;;;6374038;22;45248;-96
2022/08/27 14:53:18;;;;;;;;;1.67;0.33;;;;;;;;6342711;22;47050;-96
2022/08/27 14:55:44;;;;;;;;;0.33;0.33;;;;;;;;6347673;22;45315;-96
2022/08/27 14:58:09;;;;;;;;;1.00;1.00;;;;;;;;6374374;22;45246;-96
2022/08/27 15:00:35;;;;;;;;;1.00;1.00;;;;;;;;6346498;22;45276;-95
2022/08/27 15:03:00;;;;;;;;;0.33;0.33;;;;;;;;6372564;22;46803;-96
2022/08/27 15:05:26;;;;;;;;;1.00;1.00;;;;;;;;6374269;22;44688;-96
2022/08/27 15:07:52;;;;;;;;;2.00;0.00;;;;;;;;6378634;22;45249;-96
2022/08/27 15:10:18;;;;;;;;;0.00;0.00;;;;;;;;6376721;22;45272;-96
2022/08/27 15:12:43;;;;;;;;;0.67;0.67;;;;;;;;6333511;22;47208;-96
2022/08/27 15:15:08;;;;;;;;;0.00;0.00;;;;;;;;6348960;22;44733;-96
2022/08/27 15:17:34;;;;;;;;;1.00;1.00;;;;;;;;6326541;22;44753;-96
2022/08/27 15:19:59;;;;;;;;;1.00;1.00;;;;;;;;6327518;22;45641;-96
2022/08/27 15:22:27;;;;;;;;;2.00;0.00;;;;;;;;6367876;22;46398;-93
2022/08/27 15:24:54;;;;;;;;;0.00;0.00;;;;;;;;6344666;22;45524;-96
2022/08/27 15:27:19;;;;;;;;;1.00;1.00;;;;;;;;6376836;22;45140;-96
2022/08/27 15:29:46;;;;;;;;;1.00;1.00;;;;;;;;6372426;22;45508;-95
2022/08/27 15:32:25;;;;;;;;;1.00;1.00;;;;;;;;6343154;22;47345;-96
2022/08/27 15:34:51;;;;;;;;;0.00;0.00;;;;;;;;6349408;22;45632;-95
2022/08/27 15:37:16;;;;;;;;;0.33;0.33;;;;;;;;6375596;22;45124;-95
2022/08/27 15:39:41;;;;;;;;;1.00;1.00;;;;;;;;6375077;22;45278;-96
2022/08/27 15:42:07;;;;;;;;;1.00;1.00;;;;;;;;6347014;22;47226;-95
2022/08/27 15:44:32;;;;;;;;;1.33;1.33;;;;;;;;6374563;22;45130;-96
2022/08/27 15:46:57;;;;;;;;;2.00;1.00;;;;;;;;6388154;22;45176;-96
2022/08/27 15:49:23;;;;;;;;;3.67;2.33;;;;;;;;6371232;22;45854;-96
2022/08/27 15:51:51;;;;;;;;;9.00;7.33;;;;;;;;6348147;22;46970;-96
2022/08/27 15:54:16;;;;;;;;;0.00;0.00;;;;;;;;6362166;22;44668;-96
2022/08/27 15:56:41;;;;;;;;;0.33;0.33;;;;;;;;6379318;22;45281;-96
2022/08/27 15:59:07;;;;;;;;;0.00;0.00;;;;;;;;6340164;22;45558;-96
2022/08/27 16:01:34;;;;;;;;;1.00;1.00;;;;;;;;6324401;22;46045;-96
2022/08/27 16:03:59;;;;;;;;;4.67;2.00;;;;;;;;6310559;22;45270;-96
2022/08/27 16:06:25;;;;;;;;;2.00;2.00;;;;;;;;6309113;22;45730;-96
2022/08/27 16:08:51;;;;;;;;;1.00;1.00;;;;;;;;6306856;22;45491;-96
2022/08/27 16:11:16;;;;;;;;;3.00;2.00;;;;;;;;6310111;22;48179;-95
2022/08/27 16:13:42;;;;;;;;;1.00;1.00;;;;;;;;6315443;22;45303;-96
2022/08/27 16:16:08;;;;;;;;;1.67;1.67;;;;;;;;6320194;22;44650;-96
2022/08/27 16:18:33;;;;;;;;;3.00;3.00;;;;;;;;6316040;22;45583;-96
2022/08/27 16:21:00;;;;;;;;;1.00;1.00;;;;;;;;6307966;22;47095;-95
2022/08/27 16:23:25;;;;;;;;;2.00;1.00;;;;;;;;6308701;22;45362;-96
2022/08/27 16:25:51;;;;;;;;;1.67;1.00;;;;;;;;6306237;22;45571;-96
2022/08/27 16:28:16;;;;;;;;;3.00;2.33;;;;;;;;6308513;22;45252;-96
2022/08/27 16:30:42;;;;;;;;;1.00;1.00;;;;;;;;6316068;22;47013;-94
2022/08/27 16:33:09;;;;;;;;;2.00;1.33;;;;;;;;6311096;22;45209;-93
2022/08/27 16:35:34;;;;;;;;;1.00;1.00;;;;;;;;6309077;22;45332;-96
2022/08/27 16:38:00;;;;;;;;;2.33;2.00;;;;;;;;6306914;22;45456;-96
2022/08/27 16:40:25;;;;;;;;;1.33;1.33;;;;;;;;6306387;22;48454;-96
2022/08/27 16:42:51;;;;;;;;;2.00;2.00;;;;;;;;6305144;22;45397;-95
2022/08/27 16:45:17;;;;;;;;;1.00;0.33;;;;;;;;6310687;22;45306;-96
2022/08/27 16:50:33;;;;;;;;;2.67;2.00;;;;;;;;6315395;22;45766;-96
2022/08/27 16:53:00;;;;;;;;;3.00;3.00;;;;;;;;6310371;22;45263;-96
2022/08/27 16:55:25;;;;;;;;;3.00;2.00;;;;;;;;6307045;22;45367;-96
2022/08/27 16:57:50;;;;;;;;;2.67;2.67;;;;;;;;6308429;22;45186;-95
2022/08/27 17:00:17;;;;;;;;;3.00;3.00;;;;;;;;6304835;22;46949;-94
2022/08/27 17:02:43;;;;;;;;;1.00;1.00;;;;;;;;6306557;22;45253;-95
2022/08/27 17:05:08;;;;;;;;;2.33;2.33;;;;;;;;6304888;22;45505;-96
2022/08/27 17:07:34;;;;;;;;;1.33;1.33;;;;;;;;6305054;22;45460;-96
2022/08/27 17:09:59;;;;;;;;;2.33;1.67;;;;;;;;6305991;22;46388;-96
2022/08/27 17:12:24;;;;;;;;;4.00;3.00;;;;;;;;6307936;22;45504;-95
2022/08/27 17:14:49;;;;;;;;;3.00;3.00;;;;;;;;6306432;22;45319;-96
2022/08/27 17:17:16;;;;;;;;;2.00;2.00;;;;;;;;6305269;22;45231;-96
2022/08/27 17:19:41;;;;;;;;;7.00;7.00;;;;;;;;6304182;22;47998;-95
2022/08/27 17:22:08;;;;;;;;;3.00;3.00;;;;;;;;6305361;22;45361;-96
2022/08/27 17:24:33;;;;;;;;;3.00;3.00;;;;;;;;6304560;22;45339;-96
2022/08/27 17:26:58;;;;;;;;;3.00;3.00;;;;;;;;6304960;22;45367;-95
2022/08/27 17:29:24;;;;;;;;;4.00;4.00;;;;;;;;6305671;22;45352;-95
2022/08/27 17:31:49;;;;;;;;;3.00;3.00;;;;;;;;6329360;22;44675;-95
2022/08/27 17:34:16;;;;;;;;;2.33;2.33;;;;;;;;6313961;22;45319;-96
2022/08/27 17:36:42;;;;;;;;;2.00;2.00;;;;;;;;6318925;22;45265;-96
2022/08/27 17:39:07;;;;;;;;;3.33;3.00;;;;;;;;6305843;22;46440;-96
2022/08/27 17:41:35;;;;;;;;;2.67;2.00;;;;;;;;6309510;22;45241;-96
2022/08/27 17:44:02;;;;;;;;;3.67;3.67;;;;;;;;6311129;22;45289;-96
2022/08/27 17:46:28;;;;;;;;;4.33;3.00;;;;;;;;6314093;22;45224;-96
2022/08/27 17:48:53;;;;;;;;;4.00;4.00;;;;;;;;6315358;22;46026;-96
2022/08/27 17:51:19;;;;;;;;;4.00;4.00;;;;;;;;6317997;22;45222;-96
2022/08/27 17:53:46;;;;;;;;;3.00;3.00;;;;;;;;6318464;22;45249;-96
2022/08/27 17:56:12;;;;;;;;;2.00;2.00;;;;;;;;6318763;22;45434;-96
2022/08/27 17:58:37;;;;;;;;;2.67;2.67;;;;;;;;6321134;22;45357;-96
2022/08/27 18:01:02;;;;;;;;;6.33;5.67;;;;;;;;6316124;22;44665;-96
2022/08/27 18:03:28;;;;;;;;;4.67;3.00;;;;;;;;6323753;22;44707;-96
2022/08/27 18:05:53;;;;;;;;;5.33;4.33;;;;;;;;6325814;22;45174;-94
2022/08/27 18:08:18;;;;;;;;;3.00;3.00;;;;;;;;6315497;22;46379;-96
2022/08/27 18:10:44;;;;;;;;;5.00;5.00;;;;;;;;6365102;22;44582;-95
2022/08/27 18:13:09;;;;;;;;;3.00;3.00;;;;;;;;6363525;22;44643;-96
2022/08/27 18:15:37;;;;;;;;;6.00;5.00;;;;;;;;6356987;22;45322;-95
2022/08/27 18:18:02;;;;;;;;;3.67;2.67;;;;;;;;6356387;22;46103;-96
2022/08/27 18:20:29;;;;;;;;;4.00;4.00;;;;;;;;6388015;22;45329;-96
2022/08/27 18:25:31;;;;;;;;;3.00;3.00;;;;;;;;6342893;22;45960;-96
2022/08/27 18:27:58;;;;;;;;;4.00;3.00;;;;;;;;6381146;22;45366;-96
2022/08/27 18:30:24;;;;;;;;;4.00;4.00;;;;;;;;6383076;22;44966;-95
2022/08/27 18:38:00;;;;;;;;;4.00;4.00;;;;;;;;6393620;22;46734;-96
2022/08/27 18:40:28;;;;;;;;;4.00;4.00;;;;;;;;6398885;22;44615;-96
2022/08/27 18:42:53;;;;;;;;;4.33;4.33;;;;;;;;6368963;22;45241;-96
2022/08/27 18:45:23;;;;;;;;;5.00;3.00;;;;;;;;6396932;22;44673;-96
2022/08/27 18:47:49;;;;;;;;;6.67;6.67;;;;;;;;6388774;22;47336;-96
2022/08/27 18:50:17;;;;;;;;;5.67;5.67;;;;;;;;6398014;22;44651;-95
2022/08/27 18:52:43;;;;;;;;;6.33;6.00;;;;;;;;6371813;22;44649;-96
2022/08/27 18:55:10;;;;;;;;;8.00;7.00;;;;;;;;6395935;22;44848;-96
2022/08/27 18:57:35;;;;;;;;;5.67;5.33;;;;;;;;6391653;22;47280;-90
2022/08/27 19:00:01;;;;;;;;;5.00;4.00;;;;;;;;6391441;22;44631;-96
2022/08/27 19:02:26;;;;;;;;;5.00;5.00;;;;;;;;6390236;22;44699;-96
2022/08/27 19:04:52;;;;;;;;;5.00;5.00;;;;;;;;6388081;22;45094;-96
2022/08/27 19:07:18;;;;;;;;;14.33;10.33;;;;;;;;6391532;22;45686;-96
2022/08/27 19:09:43;;;;;;;;;8.67;8.33;;;;;;;;6391050;22;44711;-96
2022/08/27 19:12:08;;;;;;;;;9.00;6.00;;;;;;;;6390147;22;44837;-96
2022/08/27 19:14:34;;;;;;;;;6.67;6.33;;;;;;;;6362815;22;44806;-96
2022/08/27 19:17:00;;;;;;;;;6.00;6.00;;;;;;;;6395008;22;45277;-96
2022/08/27 19:21:53;;;;;;;;;7.00;5.00;;;;;;;;6423941;22;44726;-96
2022/08/27 19:24:19;;;;;;;;;5.33;5.33;;;;;;;;6416136;22;44750;-96
2022/08/27 19:26:45;;;;;;;;;5.67;5.67;;;;;;;;6380554;22;45505;-96
2022/08/27 19:29:11;;;;;;;;;6.33;5.67;;;;;;;;6410009;22;45315;-96
2022/08/27 19:31:36;;;;;;;;;5.33;5.33;;;;;;;;6408155;22;45318;-96
2022/08/27 19:34:06;;;;;;;;;5.33;5.00;;;;;;;;6380598;22;45507;-93
2022/08/27 19:36:32;;;;;;;;;6.67;6.67;;;;;;;;6382540;22;46649;-95
2022/08/27 19:38:57;;;;;;;;;5.33;5.33;;;;;;;;6386258;22;44761;-96
2022/08/27 20:40:46;;;;;;;;;7.00;6.00;;;;;;;;6327409;22;47407;-95
2022/08/27 20:43:56;;;;;;;;;8.67;6.67;;;;;;;;6341751;22;45413;-95
